^^
Datos históricos de la estación: Murcia-Puente Tocinos
Diario Informe para Mayo 20, 2019 Unidades:  Inglés    Métrico   Ambas
Diario Semanal Mensual Anual Configurable
  Máximo: Mínimo: Media:
Temperatura: 77.2 °F 57.9 °F 67.1 °F
Punto de rocio: 59.5 °F 39.4 °F 49.6 °F
Humedad: 83% 29% 55%
Velocidad viento: 10.7mph 0mph 4.5mph
Racha viento: 19mph - -
Viento- - ESE
Presión: 29.9 in 29.8 in -
Precipitación: 0 in    
Historical Graphs
 
 
Tabla de datos para Mayo 20, 2019
Hora Temperatura Punto de rocio Presión Viento Velocidad viento Racha viento Humedad Intensidad lluvia(por hora) Nubes
00:04 66 °F 39.7 °F 29.8 in NNW 2 mph 2.4 mph 38% 0 in CLR
00:09 66 °F 39.7 °F 29.8 in NNW 1.8 mph 2.4 mph 38% 0 in CLR
00:14 65.8 °F 40.8 °F 29.8 in WNW 1.8 mph 4.7 mph 40% 0 in CLR
00:19 65.7 °F 40.6 °F 29.8 in West 2.9 mph 4.6 mph 40% 0 in CLR
00:24 65.7 °F 39.4 °F 29.8 in West 2.9 mph 2.3 mph 38% 0 in CLR
00:29 65.7 °F 40.6 °F 29.8 in West 2.9 mph   40% 0 in CLR
00:34 66 °F 39.7 °F 29.8 in West 1.8 mph 2.9 mph 38% 0 in CLR
00:39 66.4 °F 39.9 °F 29.8 in West 1.8 mph 3.5 mph 38% 0 in CLR
00:44 66.6 °F 40.1 °F 29.8 in West 1.8 mph 2.3 mph 38% 0 in CLR
00:49 66.6 °F 40.1 °F 29.8 in West 1.4 mph   38% 0 in CLR
00:54 66.6 °F 41.5 °F 29.8 in NNW 1.4 mph 4 mph 40% 0 in CLR
00:59 66 °F 41.5 °F 29.8 in NW 1.4 mph 4.6 mph 41% 0 in CLR
01:04 65.7 °F 41.4 °F 29.8 in NNW 1.8 mph 2.3 mph 41% 0 in CLR
01:09 65.1 °F 41.4 °F 29.8 in NNW 1.8 mph 2.3 mph 42% 0 in CLR
01:14 64.9 °F 41.4 °F 29.8 in NNW 1.8 mph   42% 0 in CLR
01:19 64.9 °F 41.4 °F 29.8 in Calm     42% 0 in CLR
01:24 64.8 °F 41.2 °F 29.8 in Calm   5.8 mph 42% 0 in CLR
01:29 64.8 °F 41.2 °F 29.8 in ENE 1.8 mph 5.8 mph 42% 0 in CLR
01:34 64.4 °F 41.4 °F 29.8 in ENE 1.8 mph 3.5 mph 43% 0 in CLR
01:39 64.2 °F 41.7 °F 29.8 in NE 2 mph 2.9 mph 44% 0 in CLR
01:44 64 °F 41.7 °F 29.8 in NE 2 mph   44% 0 in CLR
01:49 63.9 °F 41.5 °F 29.8 in NE 1.4 mph   44% 0 in CLR
01:54 63.9 °F 42.1 °F 29.8 in NE 1.4 mph   45% 0 in CLR
01:59 63.9 °F 43.2 °F 29.8 in Calm     47% 0 in CLR
02:04 63.7 °F 43.5 °F 29.8 in Calm   2.3 mph 48% 0 in CLR
02:09 63.7 °F 44.2 °F 29.8 in NE 1.4 mph 2.3 mph 49% 0 in CLR
02:14 63.7 °F 44.8 °F 29.8 in NE 1.4 mph 3.1 mph 50% 0 in CLR
02:19 63.5 °F 44.4 °F 29.8 in NE 1.4 mph 2.3 mph 50% 0 in CLR
02:24 63.3 °F 44.4 °F 29.8 in NE 1.4 mph   50% 0 in CLR
02:29 63.3 °F 46.9 °F 29.8 in Calm   2.4 mph 55% 0 in CLR
02:34 63.1 °F 47.1 °F 29.8 in Calm   2.4 mph 56% 0 in CLR
02:39 63.1 °F 49.5 °F 29.8 in NE 1.8 mph 2.3 mph 61% 0 in CLR
02:44 63 °F 46.9 °F 29.8 in NE 1.8 mph 3.1 mph 56% 0 in CLR
02:49 62.8 °F 45.9 °F 29.8 in NE 1.4 mph 2.4 mph 54% 0 in CLR
02:54 62.4 °F 45.1 °F 29.8 in NE 1.4 mph 3.1 mph 53% 0 in CLR
02:59 62.2 °F 45 °F 29.8 in NE 2 mph 2.3 mph 53% 0 in CLR
03:04 62.2 °F 45.3 °F 29.8 in NE 2 mph 2.4 mph 54% 0 in CLR
03:09 62.2 °F 45.9 °F 29.8 in NE 1.8 mph 2.9 mph 55% 0 in CLR
03:14 62.2 °F 45.3 °F 29.8 in NE 1.8 mph 3.5 mph 54% 0 in CLR
03:19 62.1 °F 43.2 °F 29.8 in NE 2 mph 2.3 mph 50% 0 in CLR
03:24 61.9 °F 41.4 °F 29.8 in NE 2 mph 3.5 mph 47% 0 in CLR
03:29 62.1 °F 42.1 °F 29.8 in ENE 1.8 mph 3.5 mph 48% 0 in CLR
03:34 62.1 °F 42.1 °F 29.8 in NNE 1.8 mph 3.5 mph 48% 0 in CLR
03:39 61.9 °F 45 °F 29.8 in NE 2.4 mph 4.6 mph 54% 0 in CLR
03:44 61.9 °F 44.1 °F 29.8 in ENE 2.4 mph 2.3 mph 52% 0 in CLR
03:49 61.5 °F 41.2 °F 29.8 in East 2 mph 4.6 mph 47% 0 in CLR
03:54 61.3 °F 39.7 °F 29.8 in East 2 mph 2.4 mph 45% 0 in CLR
03:59 61.3 °F 40.5 °F 29.8 in East 1.8 mph 2.3 mph 46% 0 in CLR
04:04 61.2 °F 40.3 °F 29.8 in East 1.8 mph   46% 0 in CLR
04:09 61.2 °F 40.8 °F 29.8 in Calm     47% 0 in CLR
04:14 61.3 °F 43 °F 29.8 in Calm   2.3 mph 51% 0 in CLR
04:19 61.2 °F 42.4 °F 29.8 in Calm   2.3 mph 50% 0 in CLR
04:24 61 °F 42.6 °F 29.8 in Calm     51% 0 in CLR
04:29 60.6 °F 41.4 °F 29.8 in Calm     49% 0 in CLR
04:34 60.4 °F 42.3 °F 29.8 in Calm     51% 0 in CLR
04:39 60.4 °F 43.2 °F 29.8 in Calm   2.3 mph 53% 0 in CLR
04:44 60.4 °F 43.7 °F 29.8 in Calm     54% 0 in CLR
04:49 60.6 °F 44.4 °F 29.8 in Calm     55% 0 in CLR
04:54 60.6 °F 45.3 °F 29.8 in Calm   3.5 mph 57% 0 in CLR
04:59 60.6 °F 46.2 °F 29.8 in West 1.8 mph 3.1 mph 59% 0 in CLR
05:04 60.6 °F 44.8 °F 29.8 in SW 1.8 mph 5.8 mph 56% 0 in CLR
05:09 60.6 °F 44.4 °F 29.8 in West 2.9 mph 3.5 mph 55% 0 in CLR
05:14 60.6 °F 44.4 °F 29.8 in West 2.9 mph 2.3 mph 55% 0 in CLR
05:19 60.6 °F 43.9 °F 29.8 in West 1.4 mph   54% 0 in CLR
05:24 60.6 °F 43.9 °F 29.8 in South 1.4 mph 3.1 mph 54% 0 in CLR
05:29 60.4 °F 44.2 °F 29.8 in SSE 1.4 mph 3.5 mph 55% 0 in CLR
05:34 60.4 °F 44.2 °F 29.8 in SSE 1.4 mph 2.9 mph 55% 0 in CLR
05:39 60.3 °F 44.4 °F 29.8 in SSE 1.8 mph 2.3 mph 56% 0 in CLR
05:44 60.1 °F 43.9 °F 29.8 in South 1.8 mph 8.1 mph 55% 0 in CLR
05:49 58.8 °F 43.2 °F 29.8 in South 4 mph 6.9 mph 56% 0 in CLR
05:54 58.5 °F 43.3 °F 29.8 in SW 4 mph 5.4 mph 57% 0 in CLR
05:59 58.5 °F 43.3 °F 29.8 in SW 4.7 mph 6.9 mph 57% 0 in CLR
06:04 58.6 °F 43.3 °F 29.8 in SSW 4.7 mph 6.4 mph 57% 0 in CLR
06:09 58.6 °F 43.3 °F 29.8 in SSW 5.2 mph 4.6 mph 57% 0 in CLR
06:14 58.6 °F 43 °F 29.8 in SSW 5.2 mph 6.9 mph 56% 0 in CLR
06:19 58.8 °F 43.2 °F 29.8 in WSW 4.3 mph 4.6 mph 56% 0 in CLR
06:24 58.8 °F 43.2 °F 29.8 in SW 4.3 mph 4.6 mph 56% 0 in CLR
06:29 59 °F 43.3 °F 29.8 in South 3.1 mph 5.8 mph 56% 0 in CLR
06:34 59 °F 42.8 °F 29.8 in SSE 3.1 mph 4.6 mph 55% 0 in CLR
06:39 59 °F 43.3 °F 29.8 in SE 3.6 mph 4.6 mph 56% 0 in CLR
06:44 59 °F 43.3 °F 29.8 in South 3.6 mph 4.6 mph 56% 0 in CLR
06:49 58.8 °F 43.2 °F 29.8 in SE 3.6 mph 3.5 mph 56% 0 in CLR
06:54 59 °F 43.3 °F 29.8 in SSE 3.6 mph 4.6 mph 56% 0 in CLR
06:59 58.8 °F 43.2 °F 29.8 in SE 2.4 mph 4.6 mph 56% 0 in CLR
07:04 58.6 °F 43 °F 29.8 in SE 2.4 mph 3.5 mph 56% 0 in CLR
07:09 58.5 °F 43.3 °F 29.8 in SE 2 mph 2.9 mph 57% 0 in CLR
07:14 58.3 °F 43.2 °F 29.8 in SE 2 mph 3.5 mph 57% 0 in CLR
07:19 58.3 °F 43.5 °F 29.8 in SE 1.8 mph 4 mph 58% 0 in CLR
07:24 57.9 °F 42.8 °F 29.8 in SE 1.8 mph 4.6 mph 57% 0 in CLR
07:29 57.9 °F 43.2 °F 29.8 in SSE 2.9 mph 4.6 mph 58% 0 in CLR
07:34 57.9 °F 43.2 °F 29.8 in SSE 2.9 mph 3.5 mph 58% 0 in CLR
07:39 58.3 °F 43.2 °F 29.8 in SE 3.1 mph 4.6 mph 57% 0 in CLR
07:44 58.6 °F 43.3 °F 29.8 in SE 3.1 mph   57% 0 in CLR
07:49 59.2 °F 44.4 °F 29.9 in ENE 1.8 mph 2.3 mph 58% 0 in CLR
07:54 59.4 °F 44.6 °F 29.9 in North 1.8 mph 2.3 mph 58% 0 in CLR
07:59 59.7 °F 45 °F 29.9 in NNW 1.4 mph 3.5 mph 58% 0 in CLR
08:04 59.9 °F 45.5 °F 29.9 in NNW 1.4 mph 2.3 mph 59% 0 in CLR
08:09 60.3 °F 45.9 °F 29.9 in NNW 1.8 mph 1.2 mph 59% 0 in CLR
08:14 61 °F 46 °F 29.9 in NNW 1.8 mph   58% 0 in CLR
08:19 61.5 °F 45.7 °F 29.9 in Calm   3.1 mph 56% 0 in CLR
08:24 61.7 °F 45.3 °F 29.9 in Calm   2.3 mph 55% 0 in CLR
08:29 62.1 °F 45.7 °F 29.9 in ESE 1.8 mph 2.9 mph 55% 0 in CLR
08:34 62.4 °F 46 °F 29.9 in ESE 1.8 mph 2.3 mph 55% 0 in CLR
08:39 62.6 °F 45.7 °F 29.9 in SE 1.8 mph 3.5 mph 54% 0 in CLR
08:44 63 °F 46 °F 29.9 in SSE 1.8 mph 4.3 mph 54% 0 in CLR
08:49 63 °F 46 °F 29.9 in SSW 2 mph 4 mph 54% 0 in CLR
08:54 62.8 °F 45.9 °F 29.9 in SSE 2 mph 3.5 mph 54% 0 in CLR
08:59 63 °F 46 °F 29.9 in SE 2.4 mph 4.6 mph 54% 0 in CLR
09:04 63.1 °F 46.2 °F 29.9 in SSE 2.4 mph 4.6 mph 54% 0 in CLR
09:09 63.3 °F 46.4 °F 29.9 in SSE 3.1 mph 4.6 mph 54% 0 in CLR
09:14 63.7 °F 46.8 °F 29.9 in SSE 3.1 mph 4.7 mph 54% 0 in CLR
09:19 63.9 °F 46.9 °F 29.9 in South 2.9 mph 4.6 mph 54% 0 in CLR
09:24 64.2 °F 47.7 °F 29.9 in South 2.9 mph 3.5 mph 55% 0 in CLR
09:29 64.8 °F 47.7 °F 29.9 in SSW 2 mph 5.4 mph 54% 0 in CLR
09:34 65.1 °F 48 °F 29.9 in SE 2 mph 5.8 mph 54% 0 in CLR
09:39 65.1 °F 48.6 °F 29.9 in South 3.1 mph 5.8 mph 55% 0 in CLR
09:44 65.1 °F 48.6 °F 29.9 in SSE 3.1 mph 5.8 mph 55% 0 in CLR
09:49 65.1 °F 48.9 °F 29.9 in SSE 4.3 mph 7.4 mph 56% 0 in CLR
09:54 65.3 °F 49.3 °F 29.9 in SE 4.3 mph 3.5 mph 56% 0 in CLR
09:59 65.8 °F 49.6 °F 29.9 in SSW 3.1 mph 4.6 mph 56% 0 in CLR
10:04 66 °F 49.5 °F 29.9 in WSW 3.1 mph 3.6 mph 55% 0 in CLR
10:09 66.4 °F 49.6 °F 29.9 in SSW 3.1 mph 4.6 mph 55% 0 in CLR
10:14 66.7 °F 50.2 °F 29.9 in SSE 3.1 mph 2.3 mph 55% 0 in CLR
10:19 67.6 °F 50.4 °F 29.9 in WNW 2 mph 3.5 mph 54% 0 in CLR
10:24 68.5 °F 50.2 °F 29.9 in NE 2 mph 3.5 mph 52% 0 in CLR
10:29 68.9 °F 49.5 °F 29.9 in NNW 2 mph 5.8 mph 50% 0 in CLR
10:34 68.9 °F 50 °F 29.9 in NNE 2 mph 4.6 mph 51% 0 in CLR
10:39 68.5 °F 49.3 °F 29.9 in NE 3.6 mph 6.9 mph 50% 0 in CLR
10:44 68.2 °F 49.5 °F 29.9 in ENE 3.6 mph 5.9 mph 51% 0 in CLR
10:49 68.4 °F 50 °F 29.9 in NE 3.6 mph 4.6 mph 52% 0 in CLR
10:54 68.7 °F 49.8 °F 29.9 in East 3.6 mph 5.8 mph 51% 0 in CLR
10:59 69.4 °F 50 °F 29.9 in East 2.9 mph 5.8 mph 50% 0 in CLR
11:04 69.6 °F 49.6 °F 29.9 in NE 2.9 mph 5.8 mph 49% 0 in CLR
11:09 69.6 °F 49.1 °F 29.9 in West 3.1 mph 3.5 mph 48% 0 in CLR
11:14 70 °F 49.5 °F 29.9 in NNE 3.1 mph 5.8 mph 48% 0 in CLR
11:19 69.8 °F 49.3 °F 29.9 in NE 2.4 mph 4.3 mph 48% 0 in CLR
11:24 70 °F 49.8 °F 29.9 in NNE 2.4 mph 5.4 mph 49% 0 in CLR
11:29 69.8 °F 49.3 °F 29.9 in ENE 4 mph 8.1 mph 48% 0 in CLR
11:34 70 °F 49.8 °F 29.9 in NNE 4 mph 4.7 mph 49% 0 in CLR
11:39 70.3 °F 49.6 °F 29.9 in ENE 4 mph 6.9 mph 48% 0 in CLR
11:44 70.9 °F 49.6 °F 29.9 in NNE 4 mph 6.9 mph 47% 0 in CLR
11:49 71.1 °F 49.8 °F 29.9 in ENE 4.3 mph 9.2 mph 47% 0 in CLR
11:54 71.4 °F 48.9 °F 29.9 in ESE 4.3 mph 5.8 mph 45% 0 in CLR
11:59 71.4 °F 48.4 °F 29.9 in ENE 4.7 mph 4.6 mph 44% 0 in CLR
12:04 71.8 °F 49.3 °F 29.9 in NNW 4.7 mph 6.9 mph 45% 0 in CLR
12:09 72.1 °F 47.1 °F 29.9 in ESE 4 mph 5.8 mph 41% 0 in CLR
12:14 72.3 °F 46 °F 29.9 in North 4 mph 5.4 mph 39% 0 in CLR
12:19 72.7 °F 46.2 °F 29.9 in East 4.3 mph 5.8 mph 39% 0 in CLR
12:24 73 °F 46.6 °F 29.9 in ENE 4.3 mph 4.6 mph 39% 0 in CLR
12:29 73.2 °F 46 °F 29.9 in West 4.3 mph 5.8 mph 38% 0 in CLR
12:34 73.6 °F 47.1 °F 29.9 in NNE 4.3 mph 9.2 mph 39% 0 in CLR
12:39 73.2 °F 46.8 °F 29.9 in NE 4.3 mph 6.9 mph 39% 0 in CLR
12:44 73.2 °F 46 °F 29.9 in SE 4.3 mph 9.2 mph 38% 0 in CLR
12:49 73.6 °F 46.4 °F 29.9 in NE 4.7 mph 9.2 mph 38% 0 in CLR
12:54 73.6 °F 45 °F 29.9 in WNW 4.7 mph 5.8 mph 36% 0 in CLR
12:59 73.9 °F 45.3 °F 29.9 in ENE 4.7 mph 7.6 mph 36% 0 in CLR
13:04 73.9 °F 44.4 °F 29.9 in NE 4.7 mph 9.2 mph 35% 0 in CLR
13:09 73.8 °F 43 °F 29.9 in NE 6.2 mph 6.9 mph 33% 0 in CLR
13:14 73.9 °F 44.4 °F 29.9 in NNE 6.2 mph 5.2 mph 35% 0 in CLR
13:19 74.7 °F 42.8 °F 29.9 in NE 4 mph 5.8 mph 32% 0 in CLR
13:24 75 °F 42.3 °F 29.9 in NE 4 mph 3.5 mph 31% 0 in CLR
13:29 75.7 °F 43.9 °F 29.9 in East 2.9 mph 5.8 mph 32% 0 in CLR
13:34 76.3 °F 44.2 °F 29.8 in NE 2.9 mph 6.2 mph 32% 0 in CLR
13:39 76.3 °F 45.1 °F 29.8 in NNE 3.6 mph 8.5 mph 33% 0 in CLR
13:44 75.9 °F 43.9 °F 29.8 in NNE 3.6 mph 3.6 mph 32% 0 in CLR
13:49 76.5 °F 43.5 °F 29.8 in NNE 4 mph 9.2 mph 31% 0 in CLR
13:54 76.6 °F 42.1 °F 29.8 in NNW 4 mph 6.9 mph 29% 0 in CLR
13:59 77 °F 42.3 °F 29.8 in ENE 5.9 mph 10.4 mph 29% 0 in CLR
14:04 77.2 °F 43.3 °F 29.8 in North 5.9 mph 5.8 mph 30% 0 in CLR
14:09 77 °F 51.4 °F 29.8 in NE 5.9 mph 15 mph 41% 0 in CLR
14:14 76.3 °F 50.7 °F 29.8 in NNE 5.9 mph 10.7 mph 41% 0 in CLR
14:19 75.7 °F 50.4 °F 29.8 in NNE 6.9 mph 13.7 mph 41% 0 in CLR
14:24 75.6 °F 50.9 °F 29.8 in East 6.9 mph 12.7 mph 42% 0 in CLR
14:29 75.6 °F 52.7 °F 29.8 in East 8.7 mph 16.1 mph 45% 0 in CLR
14:34 75.7 °F 52.9 °F 29.8 in NE 8.7 mph 19 mph 45% 0 in CLR
14:39 75.6 °F 54.5 °F 29.8 in ESE 8.7 mph 12.7 mph 48% 0 in CLR
14:44 74.8 °F 53.8 °F 29.8 in NE 8.7 mph 13.8 mph 48% 0 in CLR
14:49 74.3 °F 54.5 °F 29.8 in ESE 9.7 mph 15 mph 50% 0 in CLR
14:54 73.9 °F 53.1 °F 29.8 in East 9.7 mph 12.7 mph 48% 0 in CLR
14:59 74.1 °F 53.2 °F 29.8 in East 10.7 mph 12.7 mph 48% 0 in CLR
15:04 74.7 °F 53.1 °F 29.8 in NW 10.7 mph 7.6 mph 47% 0 in CLR
15:09 74.8 °F 52.7 °F 29.8 in NE 7.6 mph 16.1 mph 46% 0 in CLR
15:14 74.8 °F 51.4 °F 29.8 in NE 7.6 mph 15 mph 44% 0 in CLR
15:19 75 °F 52.9 °F 29.8 in East 10.7 mph 10.4 mph 46% 0 in CLR
15:24 75.6 °F 53.2 °F 29.8 in ESE 10.7 mph 13.5 mph 46% 0 in CLR
15:29 75 °F 52.9 °F 29.8 in ESE 8.5 mph 16.1 mph 46% 0 in CLR
15:34 74.8 °F 52.7 °F 29.8 in East 8.5 mph 15 mph 46% 0 in CLR
15:39 74.7 °F 52 °F 29.8 in ESE 10.2 mph 16.1 mph 45% 0 in CLR
15:44 74.8 °F 52.7 °F 29.8 in SE 10.2 mph 13.8 mph 46% 0 in CLR
15:49 74.5 °F 52.3 °F 29.8 in SE 9.7 mph 13.8 mph 46% 0 in CLR
15:54 74.7 °F 52 °F 29.8 in SE 9.7 mph 8.1 mph 45% 0 in CLR
15:59 75 °F 52.9 °F 29.8 in ESE 7.6 mph 11.5 mph 46% 0 in CLR
16:04 75.2 °F 51.3 °F 29.8 in ESE 7.6 mph 15 mph 43% 0 in CLR
16:09 75 °F 52.2 °F 29.8 in East 8.7 mph 10.7 mph 45% 0 in CLR
16:14 75 °F 51.6 °F 29.8 in ESE 8.7 mph 11.5 mph 44% 0 in CLR
16:19 74.8 °F 51.4 °F 29.8 in East 7.6 mph 12.7 mph 44% 0 in CLR
16:24 74.5 °F 51.6 °F 29.8 in ESE 7.6 mph 12.7 mph 45% 0 in CLR
16:29 74.8 °F 52.2 °F 29.8 in ESE 7.6 mph 13.8 mph 45% 0 in CLR
16:34 74.7 °F 52.5 °F 29.8 in SE 7.6 mph 12.7 mph 46% 0 in CLR
16:39 74.5 °F 52.9 °F 29.8 in ESE 8.5 mph 12.3 mph 47% 0 in CLR
16:44 74.1 °F 53.2 °F 29.8 in ESE 8.5 mph 10.4 mph 48% 0 in CLR
16:49 73.9 °F 53.6 °F 29.8 in East 8.1 mph 8.1 mph 49% 0 in CLR
16:54 73.9 °F 54.1 °F 29.8 in ESE 8.1 mph 10 mph 50% 0 in CLR
16:59 74.1 °F 54.3 °F 29.8 in SE 6.2 mph 10.7 mph 50% 0 in CLR
17:04 73.9 °F 54.7 °F 29.8 in ESE 6.2 mph 10.4 mph 51% 0 in CLR
17:09 73.8 °F 54.5 °F 29.8 in East 6.4 mph 9.2 mph 51% 0 in CLR
17:14 73.8 °F 54.5 °F 29.8 in ESE 6.4 mph 9.2 mph 51% 0 in CLR
17:19 73.6 °F 53.8 °F 29.8 in East 5.4 mph 8.1 mph 50% 0 in CLR
17:24 73.6 °F 53.8 °F 29.8 in East 5.4 mph 8.1 mph 50% 0 in CLR
17:29 73.4 °F 54.7 °F 29.8 in East 5.2 mph 5.8 mph 52% 0 in CLR
17:34 73 °F 54.9 °F 29.8 in ESE 5.2 mph 8.1 mph 53% 0 in CLR
17:39 72.9 °F 55.2 °F 29.8 in ESE 5.2 mph 6.2 mph 54% 0 in CLR
17:44 72.7 °F 56.1 °F 29.8 in NE 5.2 mph 12.7 mph 56% 0 in CLR
17:49 72.1 °F 56.1 °F 29.8 in NNE 6.4 mph 7.4 mph 57% 0 in CLR
17:54 71.8 °F 56.1 °F 29.8 in ENE 6.4 mph 11.5 mph 58% 0 in CLR
17:59 71.4 °F 56.3 °F 29.8 in NE 7.4 mph 13.5 mph 59% 0 in CLR
18:04 71.2 °F 56.7 °F 29.8 in ENE 7.4 mph 15 mph 60% 0 in CLR
18:09 71.1 °F 56.8 °F 29.8 in North 8.5 mph 10.4 mph 61% 0 in CLR
18:14 70.9 °F 56.8 °F 29.8 in NE 8.5 mph 9.2 mph 61% 0 in CLR
18:19 70.9 °F 57.2 °F 29.8 in NE 7.4 mph 15 mph 62% 0 in CLR
18:24 70.3 °F 57 °F 29.8 in NE 7.4 mph 16.1 mph 63% 0 in CLR
18:29 70.2 °F 57.4 °F 29.8 in ENE 10 mph 12.7 mph 64% 0 in CLR
18:34 70.2 °F 57.4 °F 29.8 in NE 10 mph 11.2 mph 64% 0 in CLR
18:39 69.8 °F 57.6 °F 29.8 in NE 9.2 mph 10.4 mph 65% 0 in CLR
18:44 69.8 °F 57.6 °F 29.8 in NE 9.2 mph 14 mph 65% 0 in CLR
18:49 69.6 °F 57.4 °F 29.8 in NE 8.7 mph 12.7 mph 65% 0 in CLR
18:54 69.6 °F 57.4 °F 29.8 in NNE 8.7 mph 10.4 mph 65% 0 in CLR
18:59 69.4 °F 57.2 °F 29.8 in NNE 8.1 mph 12.7 mph 65% 0 in CLR
19:04 69.3 °F 57.4 °F 29.8 in NE 8.1 mph 13 mph 66% 0 in CLR
19:09 69.3 °F 57.4 °F 29.8 in NE 7.6 mph 11.5 mph 66% 0 in CLR
19:14 69.3 °F 57.4 °F 29.8 in NE 7.6 mph 13.8 mph 66% 0 in CLR
19:19 69.1 °F 57.7 °F 29.8 in East 8.5 mph 15 mph 67% 0 in CLR
19:24 69.1 °F 58.1 °F 29.8 in NE 8.5 mph 17.5 mph 68% 0 in CLR
19:29 68.7 °F 57.7 °F 29.8 in NNE 10 mph 11.8 mph 68% 0 in CLR
19:34 68.7 °F 58.1 °F 29.8 in NNE 10 mph 13.8 mph 69% 0 in CLR
19:39 68.5 °F 57.9 °F 29.8 in ENE 8.5 mph 15 mph 69% 0 in CLR
19:44 68.5 °F 58.5 °F 29.8 in NE 8.5 mph 10.7 mph 70% 0 in CLR
19:49 68.5 °F 58.5 °F 29.8 in ENE 8.5 mph 10.4 mph 70% 0 in CLR
19:54 68.4 °F 58.6 °F 29.8 in NNE 8.5 mph 11.4 mph 71% 0 in CLR
19:59 68.4 °F 58.6 °F 29.8 in NE 6.9 mph 10.4 mph 71% 0 in CLR
20:04 68.2 °F 58.5 °F 29.8 in ENE 6.9 mph 9.2 mph 71% 0 in CLR
20:09 68.2 °F 58.8 °F 29.8 in NNE 7.4 mph 9.2 mph 72% 0 in CLR
20:14 68.2 °F 58.8 °F 29.8 in NE 7.4 mph 10 mph 72% 0 in CLR
20:19 68.2 °F 58.8 °F 29.8 in NE 6.4 mph 10.4 mph 72% 0 in CLR
20:24 67.8 °F 58.5 °F 29.8 in ENE 6.4 mph 10.4 mph 72% 0 in CLR
20:29 67.8 °F 58.8 °F 29.8 in NNE 6.4 mph 11.5 mph 73% 0 in CLR
20:34 67.8 °F 58.8 °F 29.8 in ENE 6.4 mph 10.4 mph 73% 0 in CLR
20:39 67.8 °F 58.8 °F 29.8 in NE 6.9 mph 9.7 mph 73% 0 in CLR
20:44 67.6 °F 59.2 °F 29.8 in NE 6.9 mph 10.4 mph 74% 0 in CLR
20:49 67.5 °F 59.4 °F 29.8 in NE 7.6 mph 10.4 mph 75% 0 in CLR
20:54 67.5 °F 59.4 °F 29.8 in NE 7.6 mph 12.7 mph 75% 0 in CLR
20:59 67.3 °F 59.2 °F 29.8 in NE 7.4 mph 12.7 mph 75% 0 in CLR
21:04 67.3 °F 59.2 °F 29.9 in NNE 7.4 mph 13.8 mph 75% 0 in CLR
21:09 66.9 °F 59.2 °F 29.9 in NE 8.1 mph 11.5 mph 76% 0 in CLR
21:14 66.9 °F 59.2 °F 29.9 in NE 8.1 mph 10.4 mph 76% 0 in CLR
21:19 66.9 °F 59.2 °F 29.9 in ENE 8.1 mph 10.4 mph 76% 0 in CLR
21:24 66.7 °F 58.8 °F 29.9 in NNE 8.1 mph 12.7 mph 76% 0 in CLR
21:29 66.7 °F 58.8 °F 29.9 in NE 6.9 mph 11.5 mph 76% 0 in CLR
21:34 66.6 °F 58.8 °F 29.9 in ENE 6.9 mph 9.2 mph 76% 0 in CLR
21:39 66.6 °F 58.8 °F 29.9 in NE 6.4 mph 9.2 mph 76% 0 in CLR
21:44 66.4 °F 58.6 °F 29.9 in NNE 6.4 mph 7.4 mph 76% 0 in CLR
21:49 66.4 °F 58.8 °F 29.9 in NE 5.4 mph 6.9 mph 77% 0 in CLR
21:54 66 °F 58.6 °F 29.9 in NE 5.4 mph 9.2 mph 77% 0 in CLR
21:59 66 °F 59 °F 29.9 in NE 6.2 mph 8.1 mph 78% 0 in CLR
22:04 65.8 °F 58.8 °F 29.9 in ENE 6.2 mph 6.9 mph 78% 0 in CLR
22:09 65.7 °F 59 °F 29.9 in NNE 5.4 mph 8.1 mph 79% 0 in CLR
22:14 65.7 °F 59 °F 29.9 in NNE 5.4 mph 6.9 mph 79% 0 in CLR
22:19 65.5 °F 58.8 °F 29.9 in NE 5.9 mph 8.1 mph 79% 0 in CLR
22:24 65.5 °F 58.8 °F 29.9 in NNE 5.9 mph 6.9 mph 79% 0 in CLR
22:29 65.5 °F 59.2 °F 29.9 in NE 4.7 mph 5.9 mph 80% 0 in CLR
22:34 65.5 °F 59.2 °F 29.9 in NE 4.7 mph 8.1 mph 80% 0 in CLR
22:39 65.3 °F 59 °F 29.9 in NE 4.3 mph 6.9 mph 80% 0 in CLR
22:44 65.3 °F 59 °F 29.9 in NNE 4.3 mph 8.1 mph 80% 0 in CLR
22:49 65.1 °F 59.2 °F 29.9 in NE 5.4 mph 9.2 mph 81% 0 in CLR
22:54 64.9 °F 59 °F 29.9 in NE 5.4 mph 7.4 mph 81% 0 in CLR
22:59 64.9 °F 59 °F 29.9 in NNE 5.4 mph 6.2 mph 81% 0 in CLR
23:04 64.9 °F 59.4 °F 29.9 in NNE 5.4 mph 9.2 mph 82% 0 in CLR
23:09 64.9 °F 59.4 °F 29.9 in NE 5.9 mph 9.2 mph 82% 0 in CLR
23:14 64.8 °F 59.2 °F 29.9 in NE 5.9 mph 8.1 mph 82% 0 in CLR
23:19 64.8 °F 59.2 °F 29.9 in NNE 6.2 mph 8.1 mph 82% 0 in CLR
23:24 64.8 °F 59.5 °F 29.9 in NNE 6.2 mph 10.4 mph 83% 0 in CLR
23:29 64.8 °F 59.5 °F 29.9 in NNE 6.9 mph 9.2 mph 83% 0 in CLR
23:34 64.8 °F 59.5 °F 29.9 in ENE 6.9 mph 6.9 mph 83% 0 in CLR
23:39 64.6 °F 59.4 °F 29.9 in NE 5.9 mph 8.1 mph 83% 0 in CLR
23:44 64.6 °F 59.4 °F 29.9 in NE 5.9 mph 8.1 mph 83% 0 in CLR
23:49 64.8 °F 59.5 °F 29.9 in NE 5.4 mph 9.2 mph 83% 0 in CLR
23:54 64.8 °F 59.2 °F 29.9 in NE 5.4 mph 6.9 mph 82% 0 in CLR
23:59 64.8 °F 59.5 °F 29.9 in North 5.4 mph 8.1 mph 83% 0 in CLR
Murcia-Puente Tocinos, España
Compliments of Weather Underground - 3.5 mb

La estación de MeteoMurcia.com, publica sus datos en los siguientes proyectos:

Weather Underground PWS IMURCIAP2 Meteoclimatic www.awekas.at

W3Counter
Web Analytics